createdAt,value
2019-02-15T00:00:45.891Z,8.00
2019-02-15T00:03:14.371Z,8.60
2019-02-15T00:05:42.696Z,6.75
2019-02-15T00:08:11.196Z,12.75
2019-02-15T00:10:39.788Z,8.63
2019-02-15T00:13:13.519Z,7.65
2019-02-15T00:15:38.149Z,8.73
2019-02-15T00:18:08.096Z,7.70
2019-02-15T00:20:40.899Z,8.75
2019-02-15T00:23:09.297Z,7.58
2019-02-15T00:25:37.795Z,9.10
2019-02-15T00:28:06.085Z,8.28
2019-02-15T00:30:34.421Z,10.13
2019-02-15T00:33:02.732Z,10.10
2019-02-15T00:35:31.331Z,9.83
2019-02-15T00:37:59.911Z,8.43
2019-02-15T00:40:28.228Z,7.95
2019-02-15T00:42:56.731Z,8.25
2019-02-15T00:45:29.286Z,6.97
2019-02-15T00:48:02.337Z,9.98
2019-02-15T00:50:32.714Z,7.85
2019-02-15T00:53:05.511Z,9.00
2019-02-15T00:55:38.491Z,7.30
2019-02-15T00:58:14.443Z,6.72
2019-02-15T01:00:59.622Z,7.58
2019-02-15T01:06:10.852Z,9.28
2019-02-15T01:08:43.369Z,9.20
2019-02-15T01:11:13.581Z,6.05
2019-02-15T01:13:41.971Z,7.92
2019-02-15T01:16:10.272Z,7.47
2019-02-15T01:18:38.767Z,6.45
2019-02-15T01:21:07.080Z,5.83
2019-02-15T01:23:35.658Z,4.85
2019-02-15T01:26:17.595Z,5.25
2019-02-15T01:28:53.584Z,6.75
2019-02-15T01:31:26.347Z,6.33
2019-02-15T01:34:11.620Z,6.30
2019-02-15T01:36:41.745Z,5.42
2019-02-15T01:39:20.805Z,6.35
2019-02-15T01:42:07.137Z,6.12
2019-02-15T01:44:39.699Z,7.28
2019-02-15T01:47:09.755Z,5.80
2019-02-15T01:49:38.489Z,5.30
2019-02-15T01:52:06.989Z,6.45
2019-02-15T01:54:35.567Z,5.87
2019-02-15T01:57:04.141Z,5.30
2019-02-15T01:59:32.715Z,4.60
2019-02-15T02:02:01.299Z,5.53
2019-02-15T02:04:29.612Z,5.95
2019-02-15T02:06:57.937Z,8.63
2019-02-15T02:09:26.245Z,4.03
2019-02-15T02:11:54.566Z,4.55
2019-02-15T02:14:22.894Z,7.03
2019-02-15T02:16:51.299Z,4.37
2019-02-15T02:19:19.596Z,3.60
2019-02-15T02:21:47.917Z,4.95
2019-02-15T02:24:16.386Z,5.92
2019-02-15T02:26:44.757Z,4.50
2019-02-15T02:29:13.233Z,4.42
2019-02-15T02:31:41.717Z,3.85
2019-02-15T02:34:10.408Z,5.25
2019-02-15T02:36:50.132Z,4.78
2019-02-15T02:39:18.599Z,4.75
2019-02-15T02:41:46.961Z,5.00
2019-02-15T02:44:15.284Z,5.03
2019-02-15T02:46:44.254Z,6.87
2019-02-15T02:49:12.651Z,6.37
2019-02-15T02:51:41.019Z,4.90
2019-02-15T02:54:09.351Z,6.20
2019-02-15T02:56:38.097Z,5.03
2019-02-15T02:59:06.429Z,5.70
2019-02-15T03:01:34.896Z,5.50
2019-02-15T03:04:03.816Z,5.42
2019-02-15T03:06:32.402Z,5.58
2019-02-15T03:09:00.773Z,5.03
2019-02-15T03:11:29.290Z,5.33
2019-02-15T03:13:57.831Z,5.65
2019-02-15T03:16:26.225Z,4.12
2019-02-15T03:18:54.537Z,5.62
2019-02-15T03:21:22.871Z,4.45
2019-02-15T03:23:51.174Z,4.55
2019-02-15T03:26:19.497Z,5.08
2019-02-15T03:28:47.812Z,4.85
2019-02-15T03:31:16.214Z,4.28
2019-02-15T03:33:44.676Z,5.62
2019-02-15T03:36:14.629Z,4.80
2019-02-15T03:38:47.558Z,4.90
2019-02-15T03:41:29.857Z,4.80
2019-02-15T03:43:58.193Z,6.40
2019-02-15T03:46:26.556Z,5.33
2019-02-15T03:48:55.327Z,4.53
2019-02-15T03:51:23.709Z,5.08
2019-02-15T03:53:52.486Z,5.65
2019-02-15T03:56:21.240Z,4.60
2019-02-15T03:58:49.565Z,5.15
2019-02-15T04:01:37.308Z,4.17
2019-02-15T04:04:05.974Z,4.58
2019-02-15T04:06:34.354Z,5.62
2019-02-15T04:09:03.016Z,4.33
2019-02-15T04:11:31.352Z,6.47
2019-02-15T04:14:00.469Z,5.97
2019-02-15T04:16:29.033Z,5.33
2019-02-15T04:18:57.545Z,6.12
2019-02-15T04:21:25.853Z,5.42
2019-02-15T04:23:54.269Z,5.17
2019-02-15T04:26:22.771Z,6.25
2019-02-15T04:28:51.369Z,6.33
2019-02-15T04:31:19.784Z,5.83
2019-02-15T04:33:48.335Z,9.85
2019-02-15T04:36:16.725Z,6.47
2019-02-15T04:38:45.045Z,6.78
2019-02-15T04:41:13.407Z,8.20
2019-02-15T04:43:41.712Z,7.33
2019-02-15T04:46:10.116Z,6.78
2019-02-15T04:48:38.444Z,10.10
2019-02-15T04:51:07.034Z,5.87
2019-02-15T04:53:35.412Z,9.50
2019-02-15T04:56:03.981Z,9.65
2019-02-15T04:58:32.291Z,7.80
2019-02-15T05:01:00.609Z,10.88
2019-02-15T05:03:29.454Z,8.53
2019-02-15T05:05:58.037Z,8.60
2019-02-15T05:08:26.637Z,11.63
2019-02-15T05:10:55.026Z,10.60
2019-02-15T05:13:23.606Z,10.75
2019-02-15T05:15:51.923Z,10.90
2019-02-15T05:18:20.526Z,12.18
2019-02-15T05:20:48.905Z,13.72
2019-02-15T05:23:17.685Z,12.10
2019-02-15T05:25:46.011Z,11.30
2019-02-15T05:28:14.395Z,11.43
2019-02-15T05:30:43.140Z,13.55
2019-02-15T05:33:11.499Z,10.85
2019-02-15T05:35:40.052Z,10.20
2019-02-15T05:38:08.540Z,9.90
2019-02-15T05:40:36.866Z,11.70
2019-02-15T05:43:05.215Z,13.08
2019-02-15T05:45:33.598Z,10.72
2019-02-15T05:48:01.900Z,10.45
2019-02-15T05:50:30.586Z,10.72
2019-02-15T05:52:59.339Z,11.53
2019-02-15T05:55:27.908Z,10.50
2019-02-15T05:57:56.277Z,9.15
2019-02-15T06:00:24.714Z,10.72
2019-02-15T06:02:53.017Z,9.38
2019-02-15T06:05:21.330Z,10.78
2019-02-15T06:07:49.929Z,9.78
2019-02-15T06:10:18.596Z,10.23
2019-02-15T06:12:47.095Z,8.63
2019-02-15T06:15:15.838Z,9.13
2019-02-15T06:17:44.457Z,11.03
2019-02-15T06:20:12.844Z,9.00
2019-02-15T06:22:41.284Z,10.32
2019-02-15T06:25:09.667Z,7.00
2019-02-15T06:27:37.997Z,10.58
2019-02-15T06:30:08.256Z,10.75
2019-02-15T06:32:36.586Z,9.88
2019-02-15T06:35:05.242Z,8.85
2019-02-15T06:37:33.746Z,10.78
2019-02-15T06:40:02.266Z,12.63
2019-02-15T06:42:30.817Z,16.80
2019-02-15T06:44:59.306Z,9.60
2019-02-15T06:47:27.900Z,6.97
2019-02-15T06:49:56.550Z,9.98
2019-02-15T06:52:24.872Z,10.75
2019-02-15T06:54:53.216Z,10.88
2019-02-15T06:57:21.730Z,12.03
2019-02-15T06:59:51.998Z,13.50
2019-02-15T07:02:24.800Z,9.13
2019-02-15T07:05:11.216Z,8.55
2019-02-15T07:07:39.524Z,9.03
2019-02-15T07:10:07.896Z,9.40
2019-02-15T07:12:36.302Z,11.08
2019-02-15T07:15:05.874Z,9.60
2019-02-15T07:17:34.468Z,9.10
2019-02-15T07:20:03.017Z,10.88
2019-02-15T07:22:31.354Z,11.65
2019-02-15T07:24:59.747Z,11.65
2019-02-15T07:27:28.075Z,13.95
2019-02-15T07:29:56.383Z,11.03
2019-02-15T07:32:24.893Z,12.63
2019-02-15T07:34:53.198Z,13.35
2019-02-15T07:37:21.549Z,12.78
2019-02-15T07:39:49.851Z,12.45
2019-02-15T07:42:18.453Z,11.63
2019-02-15T07:44:46.968Z,14.45
2019-02-15T07:47:15.624Z,10.95
2019-02-15T07:49:44.014Z,17.67
2019-02-15T07:52:12.625Z,13.32
2019-02-15T07:54:41.163Z,13.03
2019-02-15T07:57:09.651Z,14.65
2019-02-15T07:59:38.136Z,14.03
2019-02-15T08:02:06.466Z,11.63
2019-02-15T08:04:34.786Z,16.65
2019-02-15T08:07:03.193Z,13.90
2019-02-15T08:09:31.750Z,13.05
2019-02-15T08:12:00.625Z,15.23
2019-02-15T08:14:29.281Z,11.30
2019-02-15T08:16:57.827Z,12.03
2019-02-15T08:19:26.699Z,12.93
2019-02-15T08:21:55.376Z,12.68
2019-02-15T08:24:24.141Z,13.65
2019-02-15T08:26:52.727Z,11.80
2019-02-15T08:29:21.069Z,11.85
2019-02-15T08:31:49.430Z,14.15
2019-02-15T08:34:17.940Z,11.88
2019-02-15T08:36:46.252Z,15.32
2019-02-15T08:39:14.762Z,11.80
2019-02-15T08:42:00.183Z,10.98
2019-02-15T08:44:13.825Z,12.00
2019-02-15T08:46:42.148Z,20.37
2019-02-15T08:49:10.918Z,14.13
2019-02-15T08:51:39.237Z,15.72
2019-02-15T08:54:07.557Z,13.53
2019-02-15T08:56:35.865Z,13.90
2019-02-15T08:59:04.449Z,14.15
2019-02-15T09:01:32.799Z,12.75
2019-02-15T09:04:01.269Z,16.00
2019-02-15T09:06:29.857Z,20.72
2019-02-15T09:08:58.165Z,15.93
2019-02-15T09:11:26.942Z,30.60
2019-02-15T09:13:55.271Z,17.05
2019-02-15T09:16:23.602Z,18.55
2019-02-15T09:18:52.452Z,16.95
2019-02-15T09:21:21.213Z,16.05
2019-02-15T09:23:49.687Z,23.55
2019-02-15T09:26:18.523Z,12.37
2019-02-15T09:28:48.873Z,26.50
2019-02-15T09:31:17.378Z,8.85
2019-02-15T09:33:45.708Z,7.62
2019-02-15T09:36:14.297Z,8.80
2019-02-15T09:38:42.619Z,12.68
2019-02-15T09:41:11.115Z,24.57
2019-02-15T09:43:39.594Z,30.00
2019-02-15T09:46:07.926Z,24.40
2019-02-15T09:48:36.429Z,13.68
2019-02-15T09:51:04.743Z,27.42
2019-02-15T09:53:33.515Z,16.57
2019-02-15T09:56:01.831Z,14.00
2019-02-15T09:58:30.161Z,13.03
2019-02-15T10:00:58.657Z,15.48
2019-02-15T10:03:26.993Z,11.83
2019-02-15T10:05:55.309Z,15.55
2019-02-15T10:08:23.927Z,8.03
2019-02-15T10:10:52.545Z,11.83
2019-02-15T10:13:21.138Z,7.12
2019-02-15T10:15:49.529Z,10.38
2019-02-15T10:18:17.842Z,8.18
2019-02-15T10:20:46.157Z,26.45
2019-02-15T10:23:14.493Z,26.35
2019-02-15T10:25:43.061Z,27.13
2019-02-15T10:28:11.394Z,13.40
2019-02-15T10:30:39.937Z,9.08
2019-02-15T10:33:08.264Z,16.82
2019-02-15T10:35:37.410Z,22.05
2019-02-15T10:38:05.806Z,14.38
2019-02-15T10:40:34.176Z,13.30
2019-02-15T10:43:02.704Z,17.62
2019-02-15T10:45:31.276Z,18.67
2019-02-15T10:47:59.603Z,8.28
2019-02-15T10:50:27.917Z,8.93
2019-02-15T10:52:56.502Z,12.80
2019-02-15T10:55:24.993Z,17.52
2019-02-15T10:57:53.323Z,8.83
2019-02-15T11:00:22.216Z,9.58
2019-02-15T11:02:50.875Z,14.78
2019-02-15T11:05:19.264Z,14.47
2019-02-15T11:07:47.601Z,11.18
2019-02-15T11:10:16.354Z,12.45
2019-02-15T11:12:44.944Z,7.70
2019-02-15T11:15:15.552Z,7.70
2019-02-15T11:17:44.135Z,8.83
2019-02-15T11:20:14.758Z,7.97
2019-02-15T11:22:43.329Z,8.20
2019-02-15T11:25:11.921Z,10.85
2019-02-15T11:27:40.250Z,22.27
2019-02-15T11:30:11.820Z,9.20
2019-02-15T11:32:40.634Z,11.75
2019-02-15T11:35:15.017Z,13.15
2019-02-15T11:37:43.343Z,9.80
2019-02-15T11:40:13.961Z,10.25
2019-02-15T11:42:42.432Z,11.22
2019-02-15T11:45:14.327Z,6.45
2019-02-15T11:47:42.834Z,13.32
2019-02-15T11:50:13.243Z,9.50
2019-02-15T11:52:41.644Z,7.65
2019-02-15T11:55:10.809Z,11.15
2019-02-15T11:57:39.219Z,13.68
2019-02-15T12:00:14.850Z,8.63
2019-02-15T12:02:43.311Z,14.20
2019-02-15T12:05:11.625Z,9.78
2019-02-15T12:07:39.946Z,10.88
2019-02-15T12:10:10.106Z,7.28
2019-02-15T12:12:38.678Z,12.93
2019-02-15T12:15:08.643Z,8.28
2019-02-15T12:17:37.039Z,13.22
2019-02-15T12:20:08.621Z,6.37
2019-02-15T12:22:37.127Z,9.80
2019-02-15T12:25:06.199Z,10.03
2019-02-15T12:27:34.609Z,12.28
2019-02-15T12:30:03.081Z,10.03
2019-02-15T12:32:31.954Z,11.78
2019-02-15T12:35:00.541Z,7.75
2019-02-15T12:37:28.959Z,10.10
2019-02-15T12:39:57.346Z,7.28
2019-02-15T12:42:25.850Z,6.03
2019-02-15T12:44:54.815Z,5.45
2019-02-15T12:47:23.148Z,9.53
2019-02-15T12:49:51.525Z,7.17
2019-02-15T12:52:19.860Z,9.93
2019-02-15T12:54:48.453Z,9.38
2019-02-15T12:57:16.797Z,9.65
2019-02-15T12:59:45.168Z,8.70
2019-02-15T13:02:13.551Z,10.20
2019-02-15T13:04:41.890Z,8.70
2019-02-15T13:07:10.205Z,12.70
2019-02-15T13:09:38.694Z,9.50
2019-02-15T13:12:07.078Z,15.45
2019-02-15T13:14:35.384Z,10.78
2019-02-15T13:17:03.982Z,13.93
2019-02-15T13:19:32.364Z,8.70
2019-02-15T13:22:00.886Z,11.43
2019-02-15T13:24:29.211Z,12.95
2019-02-15T13:26:57.526Z,9.88
2019-02-15T13:29:26.027Z,15.28
2019-02-15T13:31:54.663Z,8.35
2019-02-15T13:34:23.255Z,12.30
2019-02-15T13:36:51.914Z,11.68
2019-02-15T13:39:20.253Z,19.75
2019-02-15T13:41:49.042Z,7.30
2019-02-15T13:44:17.934Z,5.37
2019-02-15T13:46:46.378Z,11.63
2019-02-15T13:49:14.983Z,10.38
2019-02-15T13:51:43.579Z,15.25
2019-02-15T13:54:12.104Z,8.25
2019-02-15T13:56:41.087Z,8.80
2019-02-15T13:59:09.428Z,5.15
2019-02-15T14:01:37.797Z,10.13
2019-02-15T14:04:06.319Z,9.13
2019-02-15T14:06:34.931Z,12.00
2019-02-15T14:09:04.633Z,8.30
2019-02-15T14:11:33.340Z,8.55
2019-02-15T14:14:01.665Z,10.05
2019-02-15T14:16:30.256Z,11.25
2019-02-15T14:18:58.908Z,7.45
2019-02-15T14:21:27.665Z,12.90
2019-02-15T14:23:56.017Z,9.28
2019-02-15T14:26:24.358Z,8.18
2019-02-15T14:28:52.721Z,11.70
2019-02-15T14:31:21.119Z,9.78
2019-02-15T14:33:49.449Z,7.50
2019-02-15T14:36:17.876Z,12.55
2019-02-15T14:38:46.489Z,13.03
2019-02-15T14:41:14.861Z,10.90
2019-02-15T14:43:43.444Z,8.00
2019-02-15T14:46:11.876Z,19.77
2019-02-15T14:48:40.568Z,17.30
2019-02-15T14:51:09.065Z,10.63
2019-02-15T14:53:37.421Z,11.93
2019-02-15T14:56:05.825Z,12.82
2019-02-15T14:58:34.129Z,14.85
2019-02-15T15:01:02.534Z,10.75
2019-02-15T15:03:30.859Z,9.25
2019-02-15T15:05:59.337Z,5.62
2019-02-15T15:08:27.660Z,8.03
2019-02-15T15:10:56.271Z,11.20
2019-02-15T15:13:24.586Z,14.13
2019-02-15T15:15:53.241Z,10.40
2019-02-15T15:18:21.547Z,8.95
2019-02-15T15:20:49.949Z,14.33
2019-02-15T15:23:18.265Z,5.22
2019-02-15T15:25:46.760Z,5.03
2019-02-15T15:28:15.236Z,6.53
2019-02-15T15:30:43.644Z,8.48
2019-02-15T15:33:12.032Z,5.12
2019-02-15T15:35:40.355Z,5.85
2019-02-15T15:38:09.283Z,3.98
2019-02-15T15:40:37.614Z,9.85
2019-02-15T15:43:05.958Z,6.03
2019-02-15T15:45:34.343Z,6.50
2019-02-15T15:48:02.726Z,8.78
2019-02-15T15:50:31.071Z,7.62
2019-02-15T15:52:59.423Z,8.45
2019-02-15T15:55:28.295Z,5.12
2019-02-15T15:57:56.799Z,13.30
2019-02-15T16:00:25.333Z,10.53
2019-02-15T16:02:53.883Z,9.43
2019-02-15T16:05:22.211Z,8.63
2019-02-15T16:07:50.629Z,11.95
2019-02-15T16:10:19.024Z,10.32
2019-02-15T16:12:47.357Z,9.38
2019-02-15T16:15:15.678Z,13.43
2019-02-15T16:17:44.072Z,13.22
2019-02-15T16:20:13.240Z,11.55
2019-02-15T16:22:41.636Z,9.65
2019-02-15T16:25:10.394Z,8.75
2019-02-15T16:27:38.749Z,11.20
2019-02-15T16:30:12.687Z,22.70
2019-02-15T16:32:41.295Z,13.05
2019-02-15T16:35:09.941Z,20.70
2019-02-15T16:37:38.497Z,13.18
2019-02-15T16:40:11.746Z,11.25
2019-02-15T16:42:39.963Z,9.40
2019-02-15T16:45:11.056Z,11.28
2019-02-15T16:47:39.379Z,11.45
2019-02-15T16:50:08.349Z,18.00
2019-02-15T16:52:36.673Z,16.87
2019-02-15T16:55:12.736Z,15.70
2019-02-15T16:57:37.210Z,19.35
2019-02-15T17:00:08.154Z,8.98
2019-02-15T17:02:36.684Z,15.60
2019-02-15T17:05:06.295Z,12.15
2019-02-15T17:07:34.688Z,15.53
2019-02-15T17:10:03.014Z,21.15
2019-02-15T17:12:31.498Z,13.65
2019-02-15T17:15:00.027Z,14.93
2019-02-15T17:17:28.520Z,10.35
2019-02-15T17:19:57.257Z,17.90
2019-02-15T17:22:25.586Z,15.53
2019-02-15T17:24:53.967Z,10.23
2019-02-15T17:27:22.459Z,20.15
2019-02-15T17:29:50.811Z,17.15
2019-02-15T17:32:19.188Z,27.58
2019-02-15T17:34:47.492Z,19.20
2019-02-15T17:37:15.833Z,13.70
2019-02-15T17:39:44.129Z,13.13
2019-02-15T17:42:12.623Z,14.85
2019-02-15T17:44:42.783Z,16.15
2019-02-15T17:47:19.790Z,20.80
2019-02-15T17:49:48.182Z,20.12
2019-02-15T17:52:16.574Z,38.98
2019-02-15T17:54:45.358Z,29.87
2019-02-15T17:57:13.927Z,32.50
2019-02-15T17:59:42.265Z,18.10
2019-02-15T18:02:10.587Z,15.25
2019-02-15T18:04:38.918Z,13.93
2019-02-15T18:07:07.363Z,14.38
2019-02-15T18:09:35.766Z,14.87
2019-02-15T18:12:04.260Z,20.75
2019-02-15T18:14:32.581Z,20.82
2019-02-15T18:17:02.176Z,14.78
2019-02-15T18:19:30.509Z,19.77
2019-02-15T18:21:58.830Z,15.68
2019-02-15T18:24:27.599Z,15.83
2019-02-15T18:26:55.920Z,14.23
2019-02-15T18:29:24.273Z,16.90
2019-02-15T18:31:52.666Z,14.28
2019-02-15T18:34:20.998Z,20.65
2019-02-15T18:36:49.314Z,15.05
2019-02-15T18:39:17.948Z,26.80
2019-02-15T18:41:46.277Z,24.65
2019-02-15T18:44:15.107Z,15.80
2019-02-15T18:46:43.602Z,19.00
2019-02-15T18:49:19.212Z,31.97
2019-02-15T18:51:42.172Z,23.25
2019-02-15T18:54:10.879Z,21.95
2019-02-15T18:56:39.257Z,21.17
2019-02-15T18:59:07.899Z,32.45
2019-02-15T19:01:36.396Z,25.35
2019-02-15T19:04:04.853Z,27.55
2019-02-15T19:06:35.065Z,25.70
2019-02-15T19:09:04.211Z,24.52
2019-02-15T19:11:32.872Z,20.57
2019-02-15T19:14:01.489Z,15.80
2019-02-15T19:16:30.025Z,19.65
2019-02-15T19:18:58.852Z,41.20
2019-02-15T19:21:39.709Z,34.98
2019-02-15T19:24:08.130Z,27.93
2019-02-15T19:26:36.767Z,28.25
2019-02-15T19:29:05.310Z,44.20
2019-02-15T19:31:35.442Z,41.40
2019-02-15T19:34:04.451Z,33.88
2019-02-15T19:36:32.936Z,42.50
2019-02-15T19:39:07.287Z,37.90
2019-02-15T19:41:35.668Z,39.48
2019-02-15T19:44:05.820Z,40.40
2019-02-15T19:46:34.309Z,40.23
2019-02-15T19:49:06.162Z,37.17
2019-02-15T19:51:36.290Z,37.95
2019-02-15T19:54:04.675Z,39.88
2019-02-15T19:56:36.071Z,44.50
2019-02-15T19:59:07.704Z,36.88
2019-02-15T20:01:36.101Z,46.60
2019-02-15T20:04:04.506Z,37.63
2019-02-15T20:06:33.409Z,48.48
2019-02-15T20:09:01.769Z,44.60
2019-02-15T20:11:30.123Z,47.23
2019-02-15T20:14:00.064Z,37.73
2019-02-15T20:16:28.831Z,39.45
2019-02-15T20:18:58.775Z,47.33
2019-02-15T20:21:30.371Z,41.60
2019-02-15T20:24:00.429Z,44.30
2019-02-15T20:26:30.417Z,29.52
2019-02-15T20:29:00.601Z,40.95
2019-02-15T20:31:28.993Z,35.15
2019-02-15T20:33:58.947Z,42.67
2019-02-15T20:36:29.600Z,41.65
2019-02-15T20:39:00.697Z,38.33
2019-02-15T20:41:30.700Z,30.75
2019-02-15T20:43:59.600Z,45.28
2019-02-15T20:46:29.762Z,44.10
2019-02-15T20:49:04.811Z,45.52
2019-02-15T20:51:46.114Z,46.37
2019-02-15T20:54:14.750Z,34.25
2019-02-15T20:56:43.258Z,38.40
2019-02-15T20:59:11.602Z,55.33
2019-02-15T21:01:41.596Z,40.95
2019-02-15T21:04:10.176Z,32.13
2019-02-15T21:06:38.555Z,28.32
2019-02-15T21:09:07.031Z,43.83
2019-02-15T21:11:35.665Z,39.10
2019-02-15T21:14:04.426Z,37.70
2019-02-15T21:16:33.025Z,38.08
2019-02-15T21:19:01.387Z,30.05
2019-02-15T21:21:29.840Z,29.32
2019-02-15T21:23:58.626Z,27.25
2019-02-15T21:26:27.252Z,35.28
2019-02-15T21:28:55.640Z,40.12
2019-02-15T21:31:24.436Z,30.85
2019-02-15T21:33:53.171Z,34.23
2019-02-15T21:36:21.781Z,29.70
2019-02-15T21:38:50.573Z,38.42
2019-02-15T21:41:19.287Z,25.17
2019-02-15T21:43:47.684Z,31.30
2019-02-15T21:46:16.104Z,30.00
2019-02-15T21:48:44.501Z,34.70
2019-02-15T21:51:13.029Z,32.23
2019-02-15T21:53:41.520Z,35.50
2019-02-15T21:56:10.133Z,31.57
2019-02-15T21:58:38.772Z,33.25
2019-02-15T22:01:07.479Z,42.88
2019-02-15T22:03:35.820Z,30.55
2019-02-15T22:06:04.402Z,74.55
2019-02-15T22:08:32.821Z,34.20
2019-02-15T22:11:01.444Z,33.98
2019-02-15T22:13:29.891Z,36.77
2019-02-15T22:15:58.420Z,38.25
2019-02-15T22:18:26.791Z,33.00
2019-02-15T22:20:55.631Z,32.53
2019-02-15T22:23:24.248Z,26.27
2019-02-15T22:25:52.646Z,25.48
2019-02-15T22:28:21.231Z,26.45
2019-02-15T22:30:49.591Z,26.30
2019-02-15T22:33:18.173Z,23.98
2019-02-15T22:35:46.520Z,23.18
2019-02-15T22:38:15.290Z,23.75
2019-02-15T22:40:44.130Z,21.35
2019-02-15T22:43:20.810Z,15.80
2019-02-15T22:45:49.232Z,18.85
2019-02-15T22:48:18.041Z,22.62
2019-02-15T22:50:46.505Z,24.72
2019-02-15T22:53:15.201Z,25.12
2019-02-15T22:55:43.679Z,20.52
2019-02-15T22:58:12.088Z,18.40
2019-02-15T23:00:50.744Z,20.10
2019-02-15T23:03:21.708Z,22.52
2019-02-15T23:05:50.165Z,21.37
2019-02-15T23:08:18.769Z,22.20
2019-02-15T23:10:47.387Z,17.98
2019-02-15T23:13:15.741Z,17.52
2019-02-15T23:15:44.382Z,21.50
2019-02-15T23:18:12.750Z,18.75
2019-02-15T23:20:45.231Z,17.80
2019-02-15T23:23:11.623Z,20.32
2019-02-15T23:25:39.941Z,18.92
2019-02-15T23:28:08.328Z,19.98
2019-02-15T23:30:36.716Z,18.20
2019-02-15T23:33:05.063Z,16.23
2019-02-15T23:35:33.378Z,20.62
2019-02-15T23:38:01.728Z,21.70
2019-02-15T23:40:30.543Z,18.48
2019-02-15T23:42:58.912Z,16.35
2019-02-15T23:45:27.866Z,17.02
2019-02-15T23:47:56.231Z,13.58
2019-02-15T23:50:25.065Z,16.93
2019-02-15T23:52:53.544Z,19.12
2019-02-15T23:55:22.046Z,16.75
2019-02-15T23:57:50.356Z,16.42
